Jeffers, MN (56145)

10:38 AM CST on December 03, 2016 (GMT -0600)
Sorenson Seed | | Change Station

Elev 1404 ft 44.04 °N, 95.33 °W | Updated 3 minutes ago

Clear
Clear
30.4 °F
Feels Like 22 °F
N
10.0
Wind Variable Wind from SE
Gusts 11.0 mph

Today
High -- | Low -- °F
--% Chance of Precip.
Yesterday
High -- | Low -- °F
Precip. -- in
Pressure 30.23 in
Visibility 10.0 miles
Clouds Clear
Windchill 22 °F
Dew Point 26 °F
Humidity 84%
Rainfall 0.00 in
Snow Depth Not available.
7:38 AM 4:43 PM
Waxing Crescent, 16% visible
METAR KMWM 031634Z AUTO 00000KT 10SM CLR 00/M04 A3023 RMK AO2
Pressure 30.23 in
Visibility 10.0 miles
Clouds Clear
Windchill 22 °F
Dew Point 26 °F
Humidity 84%
Rainfall 0.00 in
Snow Depth Not available.
7:38 AM 4:43 PM
Waxing Crescent, 16% visible
METAR KMWM 031634Z AUTO 00000KT 10SM CLR 00/M04 A3023 RMK AO2

10-Day Weather Forecast

Almanac

Astronomy

Dec. 03, 2016 Rise Set
Actual Time
Civil Twilight
Nautical Twilight
Astronomical Twilight
Moon
Length of Visible Light
Length of Day
Tomorrow will be .
, % of the Moon is Illuminated

Today's Extremes

State Highs State Lows

Community

WunderPhotos

Upload Photos

1,955,440 photos uploaded!

WunderBlog® & News

Nearby

Air Quality

  Air Quality AQ Index Pollutant
Not available.

Snow Depth

Station Depth Elevation

Earthquake Activity

City Distance Mag. Time & Date
Minimum magnitude displayed is 2.5.

Coastal Water Temperatures

Place Temperature

Stations

Nearby Weather Stations

Station Location Temp. Windchill Dew Point Humidity Wind Precip. Elev Updated Type
                   

Watches & Warnings

There are currently no watches in effect.